sensor_id;sensor_type;location;lat;lon;timestamp;P1;durP1;ratioP1;P2;durP2;ratioP2
6438;SDS011;3252;52.540;13.290;2023-11-18T00:00:25;0.50;;;0.50;;
6438;SDS011;3252;52.540;13.290;2023-11-18T00:02:27;0.90;;;0.63;;
6438;SDS011;3252;52.540;13.290;2023-11-18T00:04:29;1.25;;;0.80;;
6438;SDS011;3252;52.540;13.290;2023-11-18T00:06:31;0.82;;;0.60;;
6438;SDS011;3252;52.540;13.290;2023-11-18T00:08:34;1.13;;;0.40;;
6438;SDS011;3252;52.540;13.290;2023-11-18T00:10:37;0.75;;;0.50;;
6438;SDS011;3252;52.540;13.290;2023-11-18T00:12:39;0.55;;;0.50;;
6438;SDS011;3252;52.540;13.290;2023-11-18T00:14:42;0.80;;;0.50;;
6438;SDS011;3252;52.540;13.290;2023-11-18T00:16:45;0.88;;;0.60;;
6438;SDS011;3252;52.540;13.290;2023-11-18T00:18:47;0.40;;;0.40;;
6438;SDS011;3252;52.540;13.290;2023-11-18T00:20:49;0.73;;;0.47;;
6438;SDS011;3252;52.540;13.290;2023-11-18T00:22:51;0.65;;;0.57;;
6438;SDS011;3252;52.540;13.290;2023-11-18T00:24:55;0.65;;;0.60;;
6438;SDS011;3252;52.540;13.290;2023-11-18T00:26:57;1.02;;;0.60;;
6438;SDS011;3252;52.540;13.290;2023-11-18T00:28:59;0.82;;;0.60;;
6438;SDS011;3252;52.540;13.290;2023-11-18T00:31:01;0.77;;;0.47;;
6438;SDS011;3252;52.540;13.290;2023-11-18T00:33:04;0.50;;;0.50;;
6438;SDS011;3252;52.540;13.290;2023-11-18T00:35:06;0.55;;;0.55;;
6438;SDS011;3252;52.540;13.290;2023-11-18T00:37:10;0.70;;;0.70;;
6438;SDS011;3252;52.540;13.290;2023-11-18T00:39:12;0.40;;;0.40;;
6438;SDS011;3252;52.540;13.290;2023-11-18T00:41:16;0.75;;;0.70;;
6438;SDS011;3252;52.540;13.290;2023-11-18T00:43:18;0.60;;;0.60;;
6438;SDS011;3252;52.540;13.290;2023-11-18T00:45:20;2.85;;;0.65;;
6438;SDS011;3252;52.540;13.290;2023-11-18T00:47:22;0.40;;;0.40;;
6438;SDS011;3252;52.540;13.290;2023-11-18T00:49:24;0.55;;;0.50;;
6438;SDS011;3252;52.540;13.290;2023-11-18T00:51:27;0.85;;;0.57;;
6438;SDS011;3252;52.540;13.290;2023-11-18T00:53:29;0.65;;;0.50;;
6438;SDS011;3252;52.540;13.290;2023-11-18T00:55:31;0.93;;;0.60;;
6438;SDS011;3252;52.540;13.290;2023-11-18T00:57:34;0.60;;;0.50;;
6438;SDS011;3252;52.540;13.290;2023-11-18T00:59:41;1.23;;;0.70;;
6438;SDS011;3252;52.540;13.290;2023-11-18T01:01:43;0.80;;;0.60;;
6438;SDS011;3252;52.540;13.290;2023-11-18T01:03:45;0.45;;;0.45;;
6438;SDS011;3252;52.540;13.290;2023-11-18T01:05:47;0.70;;;0.63;;
6438;SDS011;3252;52.540;13.290;2023-11-18T01:07:49;0.65;;;0.63;;
6438;SDS011;3252;52.540;13.290;2023-11-18T01:09:51;0.60;;;0.60;;
6438;SDS011;3252;52.540;13.290;2023-11-18T01:11:53;0.30;;;0.30;;
6438;SDS011;3252;52.540;13.290;2023-11-18T01:13:56;0.50;;;0.50;;
6438;SDS011;3252;52.540;13.290;2023-11-18T01:15:58;0.75;;;0.45;;
6438;SDS011;3252;52.540;13.290;2023-11-18T01:17:59;0.63;;;0.60;;
6438;SDS011;3252;52.540;13.290;2023-11-18T01:20:02;0.40;;;0.40;;
6438;SDS011;3252;52.540;13.290;2023-11-18T01:22:10;0.65;;;0.40;;
6438;SDS011;3252;52.540;13.290;2023-11-18T01:24:13;0.40;;;0.40;;
6438;SDS011;3252;52.540;13.290;2023-11-18T01:26:16;0.93;;;0.40;;
6438;SDS011;3252;52.540;13.290;2023-11-18T01:28:18;0.35;;;0.35;;
6438;SDS011;3252;52.540;13.290;2023-11-18T01:30:20;0.40;;;0.40;;
6438;SDS011;3252;52.540;13.290;2023-11-18T01:32:24;0.60;;;0.52;;
6438;SDS011;3252;52.540;13.290;2023-11-18T01:34:26;0.70;;;0.60;;
6438;SDS011;3252;52.540;13.290;2023-11-18T01:36:28;0.77;;;0.60;;
6438;SDS011;3252;52.540;13.290;2023-11-18T01:38:30;0.68;;;0.50;;
6438;SDS011;3252;52.540;13.290;2023-11-18T01:40:33;0.60;;;0.60;;
6438;SDS011;3252;52.540;13.290;2023-11-18T01:42:35;0.50;;;0.50;;
6438;SDS011;3252;52.540;13.290;2023-11-18T01:44:37;0.63;;;0.47;;
6438;SDS011;3252;52.540;13.290;2023-11-18T01:46:41;0.82;;;0.60;;
6438;SDS011;3252;52.540;13.290;2023-11-18T01:48:45;0.35;;;0.35;;
6438;SDS011;3252;52.540;13.290;2023-11-18T01:50:47;0.50;;;0.50;;
6438;SDS011;3252;52.540;13.290;2023-11-18T01:52:51;0.40;;;0.40;;
6438;SDS011;3252;52.540;13.290;2023-11-18T01:54:54;0.50;;;0.40;;
6438;SDS011;3252;52.540;13.290;2023-11-18T01:56:56;0.52;;;0.50;;
6438;SDS011;3252;52.540;13.290;2023-11-18T01:59:00;0.40;;;0.35;;
6438;SDS011;3252;52.540;13.290;2023-11-18T02:01:04;0.40;;;0.40;;
6438;SDS011;3252;52.540;13.290;2023-11-18T02:03:09;1.38;;;0.57;;
6438;SDS011;3252;52.540;13.290;2023-11-18T02:05:12;0.43;;;0.40;;
6438;SDS011;3252;52.540;13.290;2023-11-18T02:07:14;0.68;;;0.60;;
6438;SDS011;3252;52.540;13.290;2023-11-18T02:09:16;0.38;;;0.38;;
6438;SDS011;3252;52.540;13.290;2023-11-18T02:11:20;0.50;;;0.50;;
6438;SDS011;3252;52.540;13.290;2023-11-18T02:13:29;0.40;;;0.40;;
6438;SDS011;3252;52.540;13.290;2023-11-18T02:15:34;0.40;;;0.40;;
6438;SDS011;3252;52.540;13.290;2023-11-18T02:17:37;0.50;;;0.50;;
6438;SDS011;3252;52.540;13.290;2023-11-18T02:19:41;0.73;;;0.50;;
6438;SDS011;3252;52.540;13.290;2023-11-18T02:21:45;0.30;;;0.30;;
6438;SDS011;3252;52.540;13.290;2023-11-18T02:23:47;0.50;;;0.50;;
6438;SDS011;3252;52.540;13.290;2023-11-18T02:25:52;0.50;;;0.50;;
6438;SDS011;3252;52.540;13.290;2023-11-18T02:27:55;0.50;;;0.50;;
6438;SDS011;3252;52.540;13.290;2023-11-18T02:29:57;0.40;;;0.40;;
6438;SDS011;3252;52.540;13.290;2023-11-18T02:32:08;0.40;;;0.40;;
6438;SDS011;3252;52.540;13.290;2023-11-18T02:34:16;0.47;;;0.47;;
6438;SDS011;3252;52.540;13.290;2023-11-18T02:36:25;0.47;;;0.47;;
6438;SDS011;3252;52.540;13.290;2023-11-18T02:38:39;0.45;;;0.40;;
6438;SDS011;3252;52.540;13.290;2023-11-18T02:40:45;0.50;;;0.50;;
6438;SDS011;3252;52.540;13.290;2023-11-18T02:42:50;0.55;;;0.50;;
6438;SDS011;3252;52.540;13.290;2023-11-18T02:44:55;0.70;;;0.45;;
6438;SDS011;3252;52.540;13.290;2023-11-18T02:46:59;0.55;;;0.55;;
6438;SDS011;3252;52.540;13.290;2023-11-18T02:49:02;0.65;;;0.40;;
6438;SDS011;3252;52.540;13.290;2023-11-18T02:51:05;0.40;;;0.40;;
6438;SDS011;3252;52.540;13.290;2023-11-18T02:53:08;0.50;;;0.50;;
6438;SDS011;3252;52.540;13.290;2023-11-18T02:55:10;0.50;;;0.50;;
6438;SDS011;3252;52.540;13.290;2023-11-18T02:57:12;0.32;;;0.32;;
6438;SDS011;3252;52.540;13.290;2023-11-18T02:59:15;0.70;;;0.60;;
6438;SDS011;3252;52.540;13.290;2023-11-18T03:01:18;0.52;;;0.52;;
6438;SDS011;3252;52.540;13.290;2023-11-18T03:03:19;0.68;;;0.50;;
6438;SDS011;3252;52.540;13.290;2023-11-18T03:05:21;0.50;;;0.50;;
6438;SDS011;3252;52.540;13.290;2023-11-18T03:07:27;0.60;;;0.60;;
6438;SDS011;3252;52.540;13.290;2023-11-18T03:09:28;0.52;;;0.52;;
6438;SDS011;3252;52.540;13.290;2023-11-18T03:11:30;0.50;;;0.50;;
6438;SDS011;3252;52.540;13.290;2023-11-18T03:13:33;0.40;;;0.40;;
6438;SDS011;3252;52.540;13.290;2023-11-18T03:15:37;1.27;;;0.35;;
6438;SDS011;3252;52.540;13.290;2023-11-18T03:17:39;0.50;;;0.50;;
6438;SDS011;3252;52.540;13.290;2023-11-18T03:19:41;0.50;;;0.50;;
6438;SDS011;3252;52.540;13.290;2023-11-18T03:21:43;0.40;;;0.40;;
6438;SDS011;3252;52.540;13.290;2023-11-18T03:23:45;0.60;;;0.38;;
6438;SDS011;3252;52.540;13.290;2023-11-18T03:25:46;0.32;;;0.32;;
6438;SDS011;3252;52.540;13.290;2023-11-18T03:27:49;0.40;;;0.40;;
6438;SDS011;3252;52.540;13.290;2023-11-18T03:29:50;0.47;;;0.45;;
6438;SDS011;3252;52.540;13.290;2023-11-18T03:31:53;0.40;;;0.40;;
6438;SDS011;3252;52.540;13.290;2023-11-18T03:33:56;0.32;;;0.32;;
6438;SDS011;3252;52.540;13.290;2023-11-18T03:35:57;0.55;;;0.50;;
6438;SDS011;3252;52.540;13.290;2023-11-18T03:37:59;0.50;;;0.40;;
6438;SDS011;3252;52.540;13.290;2023-11-18T03:40:01;0.40;;;0.40;;
6438;SDS011;3252;52.540;13.290;2023-11-18T03:42:04;0.75;;;0.57;;
6438;SDS011;3252;52.540;13.290;2023-11-18T03:44:06;0.40;;;0.40;;
6438;SDS011;3252;52.540;13.290;2023-11-18T03:46:08;0.32;;;0.32;;
6438;SDS011;3252;52.540;13.290;2023-11-18T03:48:12;0.50;;;0.50;;
6438;SDS011;3252;52.540;13.290;2023-11-18T03:50:15;0.70;;;0.57;;
6438;SDS011;3252;52.540;13.290;2023-11-18T03:52:17;0.50;;;0.50;;
6438;SDS011;3252;52.540;13.290;2023-11-18T03:54:20;0.50;;;0.50;;
6438;SDS011;3252;52.540;13.290;2023-11-18T03:56:22;0.52;;;0.50;;
6438;SDS011;3252;52.540;13.290;2023-11-18T03:58:23;0.45;;;0.45;;
6438;SDS011;3252;52.540;13.290;2023-11-18T04:00:25;0.40;;;0.40;;
6438;SDS011;3252;52.540;13.290;2023-11-18T04:02:29;0.50;;;0.50;;
6438;SDS011;3252;52.540;13.290;2023-11-18T04:04:33;0.40;;;0.40;;
6438;SDS011;3252;52.540;13.290;2023-11-18T04:06:35;0.43;;;0.43;;
6438;SDS011;3252;52.540;13.290;2023-11-18T04:08:37;0.82;;;0.50;;
6438;SDS011;3252;52.540;13.290;2023-11-18T04:10:38;0.95;;;0.40;;
6438;SDS011;3252;52.540;13.290;2023-11-18T04:12:40;0.70;;;0.52;;
6438;SDS011;3252;52.540;13.290;2023-11-18T04:14:46;0.50;;;0.50;;
6438;SDS011;3252;52.540;13.290;2023-11-18T04:16:48;0.40;;;0.40;;
6438;SDS011;3252;52.540;13.290;2023-11-18T04:18:50;0.52;;;0.52;;
6438;SDS011;3252;52.540;13.290;2023-11-18T04:20:54;0.60;;;0.60;;
6438;SDS011;3252;52.540;13.290;2023-11-18T04:22:58;0.50;;;0.50;;
6438;SDS011;3252;52.540;13.290;2023-11-18T04:25:00;0.40;;;0.40;;
6438;SDS011;3252;52.540;13.290;2023-11-18T04:27:01;0.40;;;0.38;;
6438;SDS011;3252;52.540;13.290;2023-11-18T04:29:03;0.40;;;0.40;;
6438;SDS011;3252;52.540;13.290;2023-11-18T04:31:05;0.55;;;0.55;;
6438;SDS011;3252;52.540;13.290;2023-11-18T04:33:07;0.50;;;0.50;;
6438;SDS011;3252;52.540;13.290;2023-11-18T04:35:10;0.85;;;0.60;;
6438;SDS011;3252;52.540;13.290;2023-11-18T04:37:14;0.50;;;0.50;;
6438;SDS011;3252;52.540;13.290;2023-11-18T04:39:16;0.47;;;0.40;;
6438;SDS011;3252;52.540;13.290;2023-11-18T04:41:18;0.50;;;0.40;;
6438;SDS011;3252;52.540;13.290;2023-11-18T04:43:20;0.50;;;0.50;;
6438;SDS011;3252;52.540;13.290;2023-11-18T04:45:22;0.47;;;0.30;;
6438;SDS011;3252;52.540;13.290;2023-11-18T04:47:24;0.30;;;0.30;;
6438;SDS011;3252;52.540;13.290;2023-11-18T04:49:27;0.35;;;0.35;;
6438;SDS011;3252;52.540;13.290;2023-11-18T04:51:29;0.40;;;0.40;;
6438;SDS011;3252;52.540;13.290;2023-11-18T04:53:32;0.40;;;0.40;;
6438;SDS011;3252;52.540;13.290;2023-11-18T04:55:34;0.50;;;0.50;;
6438;SDS011;3252;52.540;13.290;2023-11-18T04:57:36;0.30;;;0.30;;
6438;SDS011;3252;52.540;13.290;2023-11-18T04:59:39;0.40;;;0.40;;
6438;SDS011;3252;52.540;13.290;2023-11-18T05:01:41;0.35;;;0.35;;
6438;SDS011;3252;52.540;13.290;2023-11-18T05:03:43;0.75;;;0.47;;
6438;SDS011;3252;52.540;13.290;2023-11-18T05:05:45;0.50;;;0.50;;
6438;SDS011;3252;52.540;13.290;2023-11-18T05:07:47;0.40;;;0.40;;
6438;SDS011;3252;52.540;13.290;2023-11-18T05:09:51;0.70;;;0.40;;
6438;SDS011;3252;52.540;13.290;2023-11-18T05:11:52;0.40;;;0.40;;
6438;SDS011;3252;52.540;13.290;2023-11-18T05:13:55;0.50;;;0.50;;
6438;SDS011;3252;52.540;13.290;2023-11-18T05:15:57;0.50;;;0.50;;
6438;SDS011;3252;52.540;13.290;2023-11-18T05:17:58;0.30;;;0.30;;
6438;SDS011;3252;52.540;13.290;2023-11-18T05:20:00;0.30;;;0.30;;
6438;SDS011;3252;52.540;13.290;2023-11-18T05:22:03;0.40;;;0.40;;
6438;SDS011;3252;52.540;13.290;2023-11-18T05:24:06;0.43;;;0.40;;
6438;SDS011;3252;52.540;13.290;2023-11-18T05:26:11;0.50;;;0.50;;
6438;SDS011;3252;52.540;13.290;2023-11-18T05:28:13;0.35;;;0.35;;
6438;SDS011;3252;52.540;13.290;2023-11-18T05:30:17;0.30;;;0.30;;
6438;SDS011;3252;52.540;13.290;2023-11-18T05:32:19;0.35;;;0.35;;
6438;SDS011;3252;52.540;13.290;2023-11-18T05:34:23;0.50;;;0.50;;
6438;SDS011;3252;52.540;13.290;2023-11-18T05:36:25;0.60;;;0.60;;
6438;SDS011;3252;52.540;13.290;2023-11-18T05:38:30;0.40;;;0.40;;
6438;SDS011;3252;52.540;13.290;2023-11-18T05:40:35;0.50;;;0.50;;
6438;SDS011;3252;52.540;13.290;2023-11-18T05:42:41;0.50;;;0.50;;
6438;SDS011;3252;52.540;13.290;2023-11-18T05:44:44;0.40;;;0.40;;
6438;SDS011;3252;52.540;13.290;2023-11-18T05:46:45;0.50;;;0.47;;
6438;SDS011;3252;52.540;13.290;2023-11-18T05:48:48;0.43;;;0.43;;
6438;SDS011;3252;52.540;13.290;2023-11-18T05:50:49;0.40;;;0.40;;
6438;SDS011;3252;52.540;13.290;2023-11-18T05:52:52;0.47;;;0.45;;
6438;SDS011;3252;52.540;13.290;2023-11-18T05:54:55;0.38;;;0.38;;
6438;SDS011;3252;52.540;13.290;2023-11-18T05:56:57;0.50;;;0.50;;
6438;SDS011;3252;52.540;13.290;2023-11-18T05:59:01;0.30;;;0.30;;
6438;SDS011;3252;52.540;13.290;2023-11-18T06:01:04;0.43;;;0.40;;
6438;SDS011;3252;52.540;13.290;2023-11-18T06:03:05;0.40;;;0.40;;
6438;SDS011;3252;52.540;13.290;2023-11-18T06:05:08;0.40;;;0.40;;
6438;SDS011;3252;52.540;13.290;2023-11-18T06:07:12;0.30;;;0.30;;
6438;SDS011;3252;52.540;13.290;2023-11-18T06:09:15;0.50;;;0.40;;
6438;SDS011;3252;52.540;13.290;2023-11-18T06:11:21;0.50;;;0.50;;
6438;SDS011;3252;52.540;13.290;2023-11-18T06:13:23;0.30;;;0.30;;
6438;SDS011;3252;52.540;13.290;2023-11-18T06:15:29;0.32;;;0.30;;
6438;SDS011;3252;52.540;13.290;2023-11-18T06:17:31;0.28;;;0.28;;
6438;SDS011;3252;52.540;13.290;2023-11-18T06:19:33;0.38;;;0.38;;
6438;SDS011;3252;52.540;13.290;2023-11-18T06:21:35;0.38;;;0.38;;
6438;SDS011;3252;52.540;13.290;2023-11-18T06:23:37;0.30;;;0.30;;
6438;SDS011;3252;52.540;13.290;2023-11-18T06:25:38;0.63;;;0.63;;
6438;SDS011;3252;52.540;13.290;2023-11-18T06:27:42;0.40;;;0.40;;
6438;SDS011;3252;52.540;13.290;2023-11-18T06:29:48;0.32;;;0.32;;
6438;SDS011;3252;52.540;13.290;2023-11-18T06:31:56;0.50;;;0.40;;
6438;SDS011;3252;52.540;13.290;2023-11-18T06:33:58;0.32;;;0.32;;
6438;SDS011;3252;52.540;13.290;2023-11-18T06:36:01;0.38;;;0.38;;
6438;SDS011;3252;52.540;13.290;2023-11-18T06:38:04;0.32;;;0.32;;
6438;SDS011;3252;52.540;13.290;2023-11-18T06:40:06;0.38;;;0.38;;
6438;SDS011;3252;52.540;13.290;2023-11-18T06:42:16;0.25;;;0.25;;
6438;SDS011;3252;52.540;13.290;2023-11-18T06:44:18;0.35;;;0.35;;
6438;SDS011;3252;52.540;13.290;2023-11-18T06:46:24;0.40;;;0.40;;
6438;SDS011;3252;52.540;13.290;2023-11-18T06:48:30;0.50;;;0.50;;
6438;SDS011;3252;52.540;13.290;2023-11-18T06:50:32;0.40;;;0.40;;
6438;SDS011;3252;52.540;13.290;2023-11-18T06:52:36;0.30;;;0.30;;
6438;SDS011;3252;52.540;13.290;2023-11-18T06:54:40;0.40;;;0.40;;
6438;SDS011;3252;52.540;13.290;2023-11-18T06:56:43;0.40;;;0.40;;
6438;SDS011;3252;52.540;13.290;2023-11-18T06:58:44;1.98;;;0.40;;
6438;SDS011;3252;52.540;13.290;2023-11-18T07:00:46;1.08;;;0.40;;
6438;SDS011;3252;52.540;13.290;2023-11-18T07:02:48;1.42;;;0.45;;
6438;SDS011;3252;52.540;13.290;2023-11-18T07:04:51;3.22;;;0.60;;
6438;SDS011;3252;52.540;13.290;2023-11-18T07:06:54;1.15;;;0.50;;
6438;SDS011;3252;52.540;13.290;2023-11-18T07:08:56;2.28;;;0.40;;
6438;SDS011;3252;52.540;13.290;2023-11-18T07:11:00;0.65;;;0.30;;
6438;SDS011;3252;52.540;13.290;2023-11-18T07:13:02;1.15;;;0.47;;
6438;SDS011;3252;52.540;13.290;2023-11-18T07:15:05;1.30;;;0.28;;
6438;SDS011;3252;52.540;13.290;2023-11-18T07:17:10;5.30;;;0.50;;
6438;SDS011;3252;52.540;13.290;2023-11-18T07:19:13;0.22;;;0.22;;
6438;SDS011;3252;52.540;13.290;2023-11-18T07:21:21;1.67;;;0.40;;
6438;SDS011;3252;52.540;13.290;2023-11-18T07:23:24;0.55;;;0.55;;
6438;SDS011;3252;52.540;13.290;2023-11-18T07:25:26;1.42;;;0.70;;
6438;SDS011;3252;52.540;13.290;2023-11-18T07:27:27;4.15;;;0.77;;
6438;SDS011;3252;52.540;13.290;2023-11-18T07:29:29;0.98;;;0.70;;
6438;SDS011;3252;52.540;13.290;2023-11-18T07:31:32;1.27;;;0.80;;
6438;SDS011;3252;52.540;13.290;2023-11-18T07:33:36;2.38;;;1.05;;
6438;SDS011;3252;52.540;13.290;2023-11-18T07:35:38;1.33;;;0.80;;
6438;SDS011;3252;52.540;13.290;2023-11-18T07:37:41;1.65;;;1.00;;
6438;SDS011;3252;52.540;13.290;2023-11-18T07:39:43;2.67;;;0.98;;
6438;SDS011;3252;52.540;13.290;2023-11-18T07:41:44;4.32;;;1.10;;
6438;SDS011;3252;52.540;13.290;2023-11-18T07:43:47;1.38;;;1.00;;
6438;SDS011;3252;52.540;13.290;2023-11-18T07:45:49;1.90;;;1.20;;
6438;SDS011;3252;52.540;13.290;2023-11-18T07:47:52;4.47;;;1.33;;
6438;SDS011;3252;52.540;13.290;2023-11-18T07:49:54;2.80;;;1.10;;
6438;SDS011;3252;52.540;13.290;2023-11-18T07:51:56;4.35;;;1.17;;
6438;SDS011;3252;52.540;13.290;2023-11-18T07:54:01;3.10;;;1.15;;
6438;SDS011;3252;52.540;13.290;2023-11-18T07:56:04;2.08;;;1.00;;
6438;SDS011;3252;52.540;13.290;2023-11-18T07:58:08;2.47;;;1.20;;
6438;SDS011;3252;52.540;13.290;2023-11-18T08:00:12;3.28;;;1.20;;
6438;SDS011;3252;52.540;13.290;2023-11-18T08:02:15;3.00;;;1.30;;
6438;SDS011;3252;52.540;13.290;2023-11-18T08:04:19;2.95;;;1.23;;
6438;SDS011;3252;52.540;13.290;2023-11-18T08:06:21;3.42;;;1.30;;
6438;SDS011;3252;52.540;13.290;2023-11-18T08:08:26;3.70;;;1.58;;
6438;SDS011;3252;52.540;13.290;2023-11-18T08:10:29;2.92;;;1.38;;
6438;SDS011;3252;52.540;13.290;2023-11-18T08:12:33;5.13;;;1.48;;
6438;SDS011;3252;52.540;13.290;2023-11-18T08:14:35;2.95;;;1.42;;
6438;SDS011;3252;52.540;13.290;2023-11-18T08:16:38;2.85;;;1.40;;
6438;SDS011;3252;52.540;13.290;2023-11-18T08:18:40;2.95;;;1.48;;
6438;SDS011;3252;52.540;13.290;2023-11-18T08:20:43;3.30;;;1.30;;
6438;SDS011;3252;52.540;13.290;2023-11-18T08:22:45;3.50;;;1.75;;
6438;SDS011;3252;52.540;13.290;2023-11-18T08:24:47;2.17;;;1.35;;
6438;SDS011;3252;52.540;13.290;2023-11-18T08:26:51;6.40;;;1.40;;
6438;SDS011;3252;52.540;13.290;2023-11-18T08:28:54;4.75;;;1.38;;
6438;SDS011;3252;52.540;13.290;2023-11-18T08:30:57;2.15;;;1.25;;
6438;SDS011;3252;52.540;13.290;2023-11-18T08:32:59;3.22;;;1.50;;
6438;SDS011;3252;52.540;13.290;2023-11-18T08:35:01;2.72;;;1.33;;
6438;SDS011;3252;52.540;13.290;2023-11-18T08:37:03;5.05;;;1.80;;
6438;SDS011;3252;52.540;13.290;2023-11-18T08:39:06;3.53;;;1.70;;
6438;SDS011;3252;52.540;13.290;2023-11-18T08:41:11;5.57;;;1.50;;
6438;SDS011;3252;52.540;13.290;2023-11-18T08:43:14;7.95;;;1.85;;
6438;SDS011;3252;52.540;13.290;2023-11-18T08:45:16;3.70;;;1.50;;
6438;SDS011;3252;52.540;13.290;2023-11-18T08:47:22;4.47;;;1.70;;
6438;SDS011;3252;52.540;13.290;2023-11-18T08:49:24;2.78;;;1.42;;
6438;SDS011;3252;52.540;13.290;2023-11-18T08:51:30;3.67;;;1.75;;
6438;SDS011;3252;52.540;13.290;2023-11-18T08:53:34;4.95;;;1.67;;
6438;SDS011;3252;52.540;13.290;2023-11-18T08:55:41;3.47;;;1.73;;
6438;SDS011;3252;52.540;13.290;2023-11-18T08:57:51;4.28;;;1.77;;
6438;SDS011;3252;52.540;13.290;2023-11-18T08:59:59;3.78;;;1.52;;
6438;SDS011;3252;52.540;13.290;2023-11-18T09:02:08;4.57;;;1.60;;
6438;SDS011;3252;52.540;13.290;2023-11-18T09:04:15;3.97;;;1.75;;
6438;SDS011;3252;52.540;13.290;2023-11-18T09:06:20;4.72;;;1.60;;
6438;SDS011;3252;52.540;13.290;2023-11-18T09:08:29;3.55;;;1.63;;
6438;SDS011;3252;52.540;13.290;2023-11-18T09:10:35;6.30;;;1.50;;
6438;SDS011;3252;52.540;13.290;2023-11-18T09:12:38;4.72;;;1.73;;
6438;SDS011;3252;52.540;13.290;2023-11-18T09:14:41;3.63;;;1.77;;
6438;SDS011;3252;52.540;13.290;2023-11-18T09:16:46;4.40;;;1.60;;
6438;SDS011;3252;52.540;13.290;2023-11-18T09:18:49;2.53;;;1.30;;
6438;SDS011;3252;52.540;13.290;2023-11-18T09:20:51;3.70;;;1.40;;
6438;SDS011;3252;52.540;13.290;2023-11-18T09:22:54;3.72;;;1.60;;
6438;SDS011;3252;52.540;13.290;2023-11-18T09:24:56;3.08;;;1.20;;
6438;SDS011;3252;52.540;13.290;2023-11-18T09:26:58;4.13;;;1.55;;
6438;SDS011;3252;52.540;13.290;2023-11-18T09:29:00;2.35;;;1.30;;
6438;SDS011;3252;52.540;13.290;2023-11-18T09:31:03;2.40;;;1.23;;
6438;SDS011;3252;52.540;13.290;2023-11-18T09:33:06;2.70;;;1.23;;
6438;SDS011;3252;52.540;13.290;2023-11-18T09:35:14;4.05;;;1.90;;
6438;SDS011;3252;52.540;13.290;2023-11-18T09:37:17;3.83;;;1.40;;
6438;SDS011;3252;52.540;13.290;2023-11-18T09:39:20;5.43;;;4.93;;
6438;SDS011;3252;52.540;13.290;2023-11-18T09:41:37;9.05;;;6.43;;
6438;SDS011;3252;52.540;13.290;2023-11-18T09:43:40;11.43;;;3.07;;
6438;SDS011;3252;52.540;13.290;2023-11-18T09:45:45;5.80;;;3.03;;
6438;SDS011;3252;52.540;13.290;2023-11-18T09:47:48;6.78;;;2.47;;
6438;SDS011;3252;52.540;13.290;2023-11-18T09:49:55;13.85;;;2.75;;
6438;SDS011;3252;52.540;13.290;2023-11-18T09:51:59;8.70;;;2.42;;
6438;SDS011;3252;52.540;13.290;2023-11-18T09:54:14;6.88;;;2.10;;
6438;SDS011;3252;52.540;13.290;2023-11-18T09:56:23;7.60;;;2.10;;
6438;SDS011;3252;52.540;13.290;2023-11-18T09:58:40;4.30;;;1.90;;
6438;SDS011;3252;52.540;13.290;2023-11-18T10:00:49;12.60;;;1.75;;
6438;SDS011;3252;52.540;13.290;2023-11-18T10:02:56;3.25;;;1.70;;
6438;SDS011;3252;52.540;13.290;2023-11-18T10:05:02;5.25;;;1.75;;
6438;SDS011;3252;52.540;13.290;2023-11-18T10:07:12;12.55;;;2.00;;
6438;SDS011;3252;52.540;13.290;2023-11-18T10:09:17;3.83;;;1.60;;
6438;SDS011;3252;52.540;13.290;2023-11-18T10:11:28;7.45;;;1.75;;
6438;SDS011;3252;52.540;13.290;2023-11-18T10:13:34;5.30;;;1.40;;
6438;SDS011;3252;52.540;13.290;2023-11-18T10:15:40;4.13;;;1.60;;
6438;SDS011;3252;52.540;13.290;2023-11-18T10:17:45;6.13;;;1.40;;
6438;SDS011;3252;52.540;13.290;2023-11-18T10:19:57;4.28;;;1.60;;
6438;SDS011;3252;52.540;13.290;2023-11-18T10:22:02;5.30;;;1.67;;
6438;SDS011;3252;52.540;13.290;2023-11-18T10:24:05;5.82;;;1.60;;
6438;SDS011;3252;52.540;13.290;2023-11-18T10:26:14;5.85;;;1.58;;
6438;SDS011;3252;52.540;13.290;2023-11-18T10:28:23;2.97;;;1.30;;
6438;SDS011;3252;52.540;13.290;2023-11-18T10:30:27;4.55;;;1.77;;
6438;SDS011;3252;52.540;13.290;2023-11-18T10:32:32;4.28;;;1.70;;
6438;SDS011;3252;52.540;13.290;2023-11-18T10:34:35;3.40;;;1.25;;
6438;SDS011;3252;52.540;13.290;2023-11-18T10:36:38;6.35;;;1.52;;
6438;SDS011;3252;52.540;13.290;2023-11-18T10:38:41;4.72;;;1.10;;
6438;SDS011;3252;52.540;13.290;2023-11-18T10:40:47;3.60;;;1.50;;
6438;SDS011;3252;52.540;13.290;2023-11-18T10:42:49;2.95;;;1.42;;
6438;SDS011;3252;52.540;13.290;2023-11-18T10:44:56;6.63;;;1.70;;
6438;SDS011;3252;52.540;13.290;2023-11-18T10:46:58;2.20;;;1.10;;
6438;SDS011;3252;52.540;13.290;2023-11-18T10:49:01;3.17;;;1.48;;
6438;SDS011;3252;52.540;13.290;2023-11-18T10:51:10;4.90;;;1.50;;
6438;SDS011;3252;52.540;13.290;2023-11-18T10:53:13;3.33;;;1.38;;
6438;SDS011;3252;52.540;13.290;2023-11-18T10:55:17;4.35;;;1.40;;
6438;SDS011;3252;52.540;13.290;2023-11-18T10:57:20;3.10;;;1.50;;
6438;SDS011;3252;52.540;13.290;2023-11-18T10:59:21;2.55;;;1.10;;
6438;SDS011;3252;52.540;13.290;2023-11-18T11:01:27;2.30;;;1.30;;
6438;SDS011;3252;52.540;13.290;2023-11-18T11:03:29;3.45;;;1.45;;
6438;SDS011;3252;52.540;13.290;2023-11-18T11:05:33;5.40;;;1.38;;
6438;SDS011;3252;52.540;13.290;2023-11-18T11:07:40;4.97;;;1.27;;
6438;SDS011;3252;52.540;13.290;2023-11-18T11:09:43;2.60;;;1.30;;
6438;SDS011;3252;52.540;13.290;2023-11-18T11:11:48;3.50;;;1.67;;
6438;SDS011;3252;52.540;13.290;2023-11-18T11:13:53;3.05;;;1.13;;
6438;SDS011;3252;52.540;13.290;2023-11-18T11:15:58;3.38;;;1.05;;
6438;SDS011;3252;52.540;13.290;2023-11-18T11:18:07;2.60;;;1.10;;
6438;SDS011;3252;52.540;13.290;2023-11-18T11:20:16;2.88;;;1.20;;
6438;SDS011;3252;52.540;13.290;2023-11-18T11:22:28;2.17;;;1.23;;
6438;SDS011;3252;52.540;13.290;2023-11-18T11:24:44;3.42;;;1.30;;
6438;SDS011;3252;52.540;13.290;2023-11-18T11:26:58;1.85;;;1.13;;
6438;SDS011;3252;52.540;13.290;2023-11-18T11:29:24;1.83;;;1.20;;
6438;SDS011;3252;52.540;13.290;2023-11-18T11:31:30;2.17;;;1.30;;
6438;SDS011;3252;52.540;13.290;2023-11-18T11:33:38;1.85;;;1.13;;
6438;SDS011;3252;52.540;13.290;2023-11-18T11:35:45;1.75;;;0.93;;
6438;SDS011;3252;52.540;13.290;2023-11-18T11:37:52;2.25;;;1.20;;
6438;SDS011;3252;52.540;13.290;2023-11-18T11:40:03;3.63;;;1.48;;
6438;SDS011;3252;52.540;13.290;2023-11-18T11:42:11;2.47;;;1.10;;
6438;SDS011;3252;52.540;13.290;2023-11-18T11:44:14;2.47;;;1.00;;
6438;SDS011;3252;52.540;13.290;2023-11-18T11:46:16;1.33;;;1.02;;
6438;SDS011;3252;52.540;13.290;2023-11-18T11:48:23;1.98;;;1.08;;
6438;SDS011;3252;52.540;13.290;2023-11-18T11:50:36;1.83;;;1.10;;
6438;SDS011;3252;52.540;13.290;2023-11-18T11:52:44;3.15;;;1.35;;
6438;SDS011;3252;52.540;13.290;2023-11-18T11:54:55;2.38;;;1.10;;
6438;SDS011;3252;52.540;13.290;2023-11-18T11:57:04;2.28;;;1.15;;
6438;SDS011;3252;52.540;13.290;2023-11-18T11:59:08;3.05;;;1.20;;
6438;SDS011;3252;52.540;13.290;2023-11-18T12:01:15;2.50;;;1.15;;
6438;SDS011;3252;52.540;13.290;2023-11-18T12:03:21;1.45;;;1.00;;
6438;SDS011;3252;52.540;13.290;2023-11-18T12:05:24;2.35;;;1.42;;
6438;SDS011;3252;52.540;13.290;2023-11-18T12:07:27;2.17;;;1.00;;
6438;SDS011;3252;52.540;13.290;2023-11-18T12:09:32;1.88;;;1.17;;
6438;SDS011;3252;52.540;13.290;2023-11-18T12:11:38;2.08;;;1.00;;
6438;SDS011;3252;52.540;13.290;2023-11-18T12:13:59;1.50;;;1.00;;
6438;SDS011;3252;52.540;13.290;2023-11-18T12:16:14;1.45;;;1.02;;
6438;SDS011;3252;52.540;13.290;2023-11-18T12:18:21;3.53;;;1.30;;
6438;SDS011;3252;52.540;13.290;2023-11-18T12:20:39;1.60;;;1.23;;
6438;SDS011;3252;52.540;13.290;2023-11-18T12:23:03;1.85;;;0.85;;
6438;SDS011;3252;52.540;13.290;2023-11-18T12:25:28;1.13;;;0.80;;
6438;SDS011;3252;52.540;13.290;2023-11-18T12:27:41;1.73;;;1.20;;
6438;SDS011;3252;52.540;13.290;2023-11-18T12:29:51;3.03;;;1.35;;
6438;SDS011;3252;52.540;13.290;2023-11-18T12:31:55;1.63;;;0.95;;
6438;SDS011;3252;52.540;13.290;2023-11-18T12:34:01;1.60;;;1.10;;
6438;SDS011;3252;52.540;13.290;2023-11-18T12:36:35;1.30;;;0.90;;
6438;SDS011;3252;52.540;13.290;2023-11-18T12:41:44;1.70;;;0.98;;